SCEL 230400Z 18003KT 150V250 CAVOK 19/06 Q1015 NOSIG